Taunsa Weather



Taunsa's Current Weather

Temprature 27.81o clear sky

clear sky

Rain: 0 %

Min Temprature27.81o
Max Temprature27.81o
Humidity42
Wind Speed4 m/h
Sun Rise05:18:11
Sun Set19:10:33
Current Time: 24-May-2022 08:00:32
Lat/Lon: 30.7048, 70.6505




Taunsa's Geo Location



Taunsa's Weather Forecast

Time Overall Temp Min Temp Max Temp Humidity Wind Speed Rain
24-May-2022 (Tue)
11:00:00 clear sky 29.640 29.640 33.290 37 4.54 m/h 0 %
14:00:00 clear sky 33.840 33.840 36.850 26 2.64 m/h 0 %
17:00:00 clear sky 38.140 38.140 38.140 15 3.17 m/h 0 %
20:00:00 clear sky 34.270 34.270 34.270 19 2.82 m/h 0 %
23:00:00 clear sky 30.610 30.610 30.610 24 1.28 m/h 0 %
25-May-2022 (Wed)
02:00:00 clear sky 28.940 28.940 28.940 27 1.02 m/h 0 %
05:00:00 clear sky 28.290 28.290 28.290 28 1.93 m/h 0 %
08:00:00 clear sky 33.560 33.560 33.560 21 4.48 m/h 0 %
11:00:00 clear sky 38.180 38.180 38.180 17 5.29 m/h 0 %
14:00:00 clear sky 41.800 41.800 41.800 13 4.93 m/h 0 %
17:00:00 clear sky 42.480 42.480 42.480 11 3.61 m/h 0 %
20:00:00 clear sky 37.710 37.710 37.710 14 2.99 m/h 0 %
23:00:00 clear sky 34.060 34.060 34.060 17 2.2 m/h 0 %
26-May-2022 (Thu)
02:00:00 clear sky 31.210 31.210 31.210 19 1.35 m/h 0 %
05:00:00 clear sky 29.280 29.280 29.280 22 1.46 m/h 0 %
08:00:00 clear sky 35.200 35.200 35.200 15 0.34 m/h 0 %
11:00:00 clear sky 41.410 41.410 41.410 11 1.96 m/h 0 %
14:00:00 clear sky 44.920 44.920 44.920 8 1.2 m/h 0 %
17:00:00 clear sky 45.590 45.590 45.590 6 2.35 m/h 0 %
20:00:00 scattered clouds 39.810 39.810 39.810 9 1.28 m/h 0 %
23:00:00 scattered clouds 37.950 37.950 37.950 10 1.9 m/h 0 %
27-May-2022 (Fri)
02:00:00 clear sky 34.520 34.520 34.520 14 0.76 m/h 0 %
05:00:00 clear sky 33.290 33.290 33.290 14 2.67 m/h 0 %
08:00:00 clear sky 39.050 39.050 39.050 12 1.88 m/h 0 %
11:00:00 clear sky 44.910 44.910 44.910 7 1.21 m/h 0 %
14:00:00 clear sky 48.640 48.640 48.640 3 3.14 m/h 0 %
17:00:00 clear sky 49.310 49.310 49.310 1 10.62 m/h 0 %
20:00:00 clear sky 43.620 43.620 43.620 2 11.13 m/h 0 %
23:00:00 clear sky 41.280 41.280 41.280 3 12.34 m/h 0 %
28-May-2022 (Sat)
02:00:00 clear sky 39.040 39.040 39.040 4 11.38 m/h 0 %
05:00:00 clear sky 34.930 34.930 34.930 7 2.7 m/h 0 %
08:00:00 clear sky 39.180 39.180 39.180 11 8.12 m/h 0 %
11:00:00 clear sky 43.910 43.910 43.910 11 9.93 m/h 0 %
14:00:00 clear sky 46.650 46.650 46.650 8 8.2 m/h 0 %
17:00:00 clear sky 46.580 46.580 46.580 4 6.32 m/h 0 %
20:00:00 scattered clouds 40.740 40.740 40.740 4 5.14 m/h 0 %
23:00:00 scattered clouds 37.960 37.960 37.960 15 6.49 m/h 0 %
29-May-2022 (Sun)
02:00:00 scattered clouds 35.640 35.640 35.640 17 3.9 m/h 0 %
05:00:00 few clouds 34.570 34.570 34.570 17 5.09 m/h 0 %
08:00:00 clear sky 38.340 38.340 38.340 17 7.64 m/h 0 %

Famous Cities (61)